Mcallister Responder — WDC8665 — position and weather

sailwx.info

Track history (hours):
 
Tides and Currents Weather Stations Pressure Air Temp Water Temp Dewpoint Dewpoint Depression Visibility Wind Speed Wind Dir Waves Ship Positions

Mcallister Responder

Owner: McAllister Towing & Transportation, Staten Island, NY. More information available from US FCC via Universal Licensing System and Coast Guard Vessel Documentation Center.

Last reported at 2018-Jan-18 07:30 UTC. Time now 2018-Jan-18 07:58 UTC.
Position N 39°54' W 075°08'.

Length 34 m.

Type: Tug. MMSI: 367091050.

Date/timePositionNaut miles runAvg speedWind from/ knotsBaromVisibWave heightAir tempDewpointWater temp
2018-Jan-18 07:30N 39°54' W 075°08'0 0.3
2018-Jan-18 07:00N 39°54' W 075°08'0 0.0
2018-Jan-18 06:30N 39°54' W 075°08'4 7.9
2018-Jan-18 06:01N 39°52' W 075°13'0 0.5
2018-Jan-18 05:31N 39°52' W 075°13'0 0.0
2018-Jan-18 05:00N 39°52' W 075°13'0 0.0
2018-Jan-18 04:30N 39°52' W 075°13'2 0.4
2018-Jan-17 23:38N 39°53' W 075°12'  
2018-Jan-12 05:22N 39°54' W 075°12'2 5.4
2018-Jan-12 05:00N 39°52' W 075°13'0 0.1
2018-Jan-12 04:30N 39°52' W 075°13'0 0.0
2018-Jan-12 04:01N 39°52' W 075°13'0 0.1
2018-Jan-12 03:30N 39°52' W 075°13'0 0.2
2018-Jan-12 03:01N 39°52' W 075°13'0 0.3
2018-Jan-12 02:30N 39°52' W 075°13'1 1.7
2018-Jan-12 02:00N 39°52' W 075°14'1 2.0
2018-Jan-12 01:30N 39°52' W 075°13'0 0.0
2018-Jan-12 01:00N 39°52' W 075°13'0 0.0
2018-Jan-12 00:30N 39°52' W 075°13'0 0.0
2018-Jan-12 00:01N 39°52' W 075°13'2 3.2
2018-Jan-11 23:30N 39°53' W 075°11'2 4.4
2018-Jan-11 23:00N 39°54' W 075°08'0 0.0
2018-Jan-11 22:30N 39°54' W 075°08'0 0.1
2018-Jan-11 22:00N 39°54' W 075°08'2 3.8
2018-Jan-11 21:30N 39°53' W 075°11'2 3.9
2018-Jan-11 21:00N 39°54' W 075°08'2 3.5
2018-Jan-11 20:30N 39°53' W 075°10'1 2.4
2018-Jan-11 20:00N 39°54' W 075°12'0 0.3
2018-Jan-11 19:31N 39°54' W 075°12'0 0.0
2018-Jan-11 05:10N 39°53' W 075°12'1 8.0
2018-Jan-11 05:00N 39°52' W 075°13'4 8.9
2018-Jan-11 04:30N 39°51' W 075°18'4 8.3
2018-Jan-11 04:00N 39°49' W 075°23'4 8.5
2018-Jan-11 03:31N 39°47' W 075°28'4 8.6
2018-Jan-11 03:01N 39°43' W 075°30'4 8.5
2018-Jan-11 02:30N 39°39' W 075°33'4 7.2
2018-Jan-11 02:00N 39°36' W 075°34'1 2.6
2018-Jan-11 01:30N 39°35' W 075°35'0 0.2
2018-Jan-11 01:01N 39°35' W 075°35'0 0.2
2018-Jan-11 00:31N 39°35' W 075°35'0 0.0
2018-Jan-11 00:00N 39°35' W 075°35'2 3.0
2018-Jan-10 23:31N 39°35' W 075°33'4 8.5
2018-Jan-10 23:01N 39°39' W 075°33'5 9.0
2018-Jan-10 22:30N 39°43' W 075°30'5 9.3
2018-Jan-10 22:01N 39°47' W 075°28'4 8.6
2018-Jan-10 21:30N 39°50' W 075°23'5 9.3
2018-Jan-10 21:00N 39°51' W 075°17'1 1.5
2018-Jan-10 20:30N 39°51' W 075°16'1 1.2
2018-Jan-10 20:00N 39°51' W 075°16'2 4.2
2018-Jan-10 19:30N 39°52' W 075°13'0 0.0
2018-Jan-10 19:00N 39°52' W 075°13'1 2.8
2018-Jan-10 18:30N 39°53' W 075°12'1 0.2
2018-Jan-10 14:34N 39°54' W 075°12'0 2.7
2018-Jan-10 14:31N 39°54' W 075°12'3 5.4
2018-Jan-10 14:00N 39°54' W 075°08'0 0.1
2018-Jan-10 13:30N 39°54' W 075°08'0 0.1
2018-Jan-10 13:01N 39°54' W 075°08'3 1.8
2018-Jan-10 11:29N 39°54' W 075°12'3 5.4
2018-Jan-10 11:00N 39°53' W 075°09'2 3.0
2018-Jan-10 10:30N 39°54' W 075°08'1 2.7
2018-Jan-10 10:01N 39°53' W 075°08'1 2.6
2018-Jan-10 09:30N 39°54' W 075°08'3 5.7
2018-Jan-10 09:00N 39°57' W 075°08'4 8.5
2018-Jan-10 08:31N 39°60' W 075°04'2 3.8
2018-Jan-10 08:01N 39°59' W 075°06'1 1.2
2018-Jan-10 07:31N 39°59' W 075°05'0 0.0
2018-Jan-10 07:00N 39°59' W 075°05'0 0.3
2018-Jan-10 06:31N 39°59' W 075°05'4 7.7
2018-Jan-10 06:00N 39°56' W 075°08'3 6.2
2018-Jan-10 05:31N 39°53' W 075°10'2 0.3
2018-Jan-09 22:48N 39°54' W 075°12'0 0.5
2018-Jan-09 22:30N 39°54' W 075°12'3 6.4
2018-Jan-09 22:00N 39°54' W 075°08'0 0.0
2018-Jan-09 21:30N 39°54' W 075°08'0 0.2
2018-Jan-09 21:00N 39°54' W 075°08'1 1.5
2018-Jan-09 20:31N 39°53' W 075°08'5 9.3
2018-Jan-09 20:00N 39°52' W 075°14'5 9.0
2018-Jan-09 19:30N 39°51' W 075°20'5 9.9
2018-Jan-09 19:00N 39°48' W 075°25'511.0
2018-Jan-09 18:30N 39°44' W 075°30'510.7
2018-Jan-09 18:00N 39°39' W 075°33'4 8.7
2018-Jan-09 17:30N 39°35' W 075°33'510.0
2018-Jan-09 17:00N 39°30' W 075°33'5 9.2
2018-Jan-09 16:30N 39°26' W 075°32'5 9.8
2018-Jan-09 16:00N 39°22' W 075°27'5 9.3
2018-Jan-09 15:30N 39°18' W 075°23'5 9.9
2018-Jan-09 15:00N 39°15' W 075°19'1010.6
2018-Jan-09 14:05N 39°06' W 075°12'210.9
2018-Jan-09 13:55N 39°05' W 075°11'13 5.3
2018-Jan-09 11:31N 38°53' W 075°06'1 7.8
2018-Jan-09 11:21N 38°54' W 075°06'611.5
2018-Jan-09 10:52N 38°59' W 075°08'512.2
2018-Jan-09 10:26N 39°04' W 075°11'511.6
2018-Jan-09 09:58N 39°09' W 075°15'510.6
2018-Jan-09 09:30N 39°13' W 075°18'5 9.8
2018-Jan-09 09:00N 39°17' W 075°22'4 8.6
2018-Jan-09 08:30N 39°20' W 075°25'3 6.1
2018-Jan-09 08:00N 39°22' W 075°28'3 6.2
2018-Jan-09 07:31N 39°25' W 075°31'3 6.6
2018-Jan-09 07:00N 39°27' W 075°33'4 7.1
2018-Jan-09 06:30N 39°31' W 075°33'4 8.1
2018-Jan-09 06:01N 39°35' W 075°33'4 8.5
2018-Jan-09 05:30N 39°39' W 075°33'5 9.2
2018-Jan-09 05:00N 39°43' W 075°30'5 9.0
2018-Jan-09 04:30N 39°47' W 075°27'4 9.0
2018-Jan-09 04:00N 39°50' W 075°22'4 8.4
2018-Jan-09 03:30N 39°51' W 075°17'4 8.1
2018-Jan-09 03:00N 39°52' W 075°12'4 7.0
2018-Jan-09 02:30N 39°54' W 075°08'0 0.0
2018-Jan-09 02:01N 39°54' W 075°08'0 0.0
2018-Jan-09 01:30N 39°54' W 075°08'0 0.0
2018-Jan-09 01:00N 39°54' W 075°08'0 0.0
2018-Jan-09 00:30N 39°54' W 075°08'0 0.0
2018-Jan-09 00:00N 39°54' W 075°08'0 0.0
2018-Jan-08 23:30N 39°54' W 075°08'0 0.0
2018-Jan-08 23:00N 39°54' W 075°08'0 0.0
2018-Jan-08 22:30N 39°54' W 075°08'0 0.0
2018-Jan-08 22:01N 39°54' W 075°08'0 0.0
2018-Jan-08 21:30N 39°54' W 075°08'2 3.0
2018-Jan-08 21:00N 39°53' W 075°10'1 2.8
2018-Jan-08 20:30N 39°53' W 075°12'1 1.2
2018-Jan-08 20:01N 39°53' W 075°11'3 5.8
2018-Jan-08 19:30N 39°55' W 075°08'3 6.9
2018-Jan-08 19:00N 39°58' W 075°07'2 3.3
2018-Jan-08 18:30N 39°59' W 075°05'0 0.0
2018-Jan-08 18:00N 39°59' W 075°05'0 0.0
2018-Jan-08 17:30N 39°59' W 075°05'0 0.0
2018-Jan-08 17:01N 39°59' W 075°05'0 0.0
2018-Jan-08 16:30N 39°59' W 075°05'0 0.0
2018-Jan-08 16:00N 39°59' W 075°05'0 0.0
2018-Jan-08 15:30N 39°59' W 075°05'0 0.0
2018-Jan-08 15:00N 39°59' W 075°05'0 0.0
2018-Jan-08 14:30N 39°59' W 075°05'0 0.0
2018-Jan-08 14:00N 39°59' W 075°05'2 3.4
2018-Jan-08 13:30N 39°58' W 075°07'3 6.4
2018-Jan-08 13:00N 39°55' W 075°08'3 5.5
2018-Jan-08 12:30N 39°53' W 075°10'1 1.3
2018-Jan-08 12:00N 39°53' W 075°11'0 0.0
2018-Jan-08 11:30N 39°53' W 075°11'0 0.2
2018-Jan-08 11:00N 39°53' W 075°11'1 1.4
2018-Jan-08 10:30N 39°53' W 075°12'  
Track history (hours):
 
Tides and Currents Weather Stations Pressure Air Temp Water Temp Dewpoint Dewpoint Depression Visibility Wind Speed Wind Dir Waves Ship Positions

Mcallister Responder

Owner: McAllister Towing & Transportation, Staten Island, NY. More information available from US FCC via Universal Licensing System and Coast Guard Vessel Documentation Center.

Last reported at 2018-Jan-18 07:30 UTC. Time now 2018-Jan-18 07:58 UTC.
Position N 39°54' W 075°08'.

Length 34 m.

Type: Tug. MMSI: 367091050.

Date/timePositionNaut miles runAvg speedWind from/ knotsBaromVisibWave heightAir tempDewpointWater temp
2018-Jan-18 07:30N 39°54' W 075°08'0 0.3
2018-Jan-18 07:00N 39°54' W 075°08'0 0.0
2018-Jan-18 06:30N 39°54' W 075°08'4 7.9
2018-Jan-18 06:01N 39°52' W 075°13'0 0.5
2018-Jan-18 05:31N 39°52' W 075°13'0 0.0
2018-Jan-18 05:00N 39°52' W 075°13'0 0.0
2018-Jan-18 04:30N 39°52' W 075°13'2 0.4
2018-Jan-17 23:38N 39°53' W 075°12'  
2018-Jan-12 05:22N 39°54' W 075°12'2 5.4
2018-Jan-12 05:00N 39°52' W 075°13'0 0.1
2018-Jan-12 04:30N 39°52' W 075°13'0 0.0
2018-Jan-12 04:01N 39°52' W 075°13'0 0.1
2018-Jan-12 03:30N 39°52' W 075°13'0 0.2
2018-Jan-12 03:01N 39°52' W 075°13'0 0.3
2018-Jan-12 02:30N 39°52' W 075°13'1 1.7
2018-Jan-12 02:00N 39°52' W 075°14'1 2.0
2018-Jan-12 01:30N 39°52' W 075°13'0 0.0
2018-Jan-12 01:00N 39°52' W 075°13'0 0.0
2018-Jan-12 00:30N 39°52' W 075°13'0 0.0
2018-Jan-12 00:01N 39°52' W 075°13'2 3.2
2018-Jan-11 23:30N 39°53' W 075°11'2 4.4
2018-Jan-11 23:00N 39°54' W 075°08'0 0.0
2018-Jan-11 22:30N 39°54' W 075°08'0 0.1
2018-Jan-11 22:00N 39°54' W 075°08'2 3.8
2018-Jan-11 21:30N 39°53' W 075°11'2 3.9
2018-Jan-11 21:00N 39°54' W 075°08'2 3.5
2018-Jan-11 20:30N 39°53' W 075°10'1 2.4
2018-Jan-11 20:00N 39°54' W 075°12'0 0.3
2018-Jan-11 19:31N 39°54' W 075°12'0 0.0
2018-Jan-11 05:10N 39°53' W 075°12'1 8.0
2018-Jan-11 05:00N 39°52' W 075°13'4 8.9
2018-Jan-11 04:30N 39°51' W 075°18'4 8.3
2018-Jan-11 04:00N 39°49' W 075°23'4 8.5
2018-Jan-11 03:31N 39°47' W 075°28'4 8.6
2018-Jan-11 03:01N 39°43' W 075°30'4 8.5
2018-Jan-11 02:30N 39°39' W 075°33'4 7.2
2018-Jan-11 02:00N 39°36' W 075°34'1 2.6
2018-Jan-11 01:30N 39°35' W 075°35'0 0.2
2018-Jan-11 01:01N 39°35' W 075°35'0 0.2
2018-Jan-11 00:31N 39°35' W 075°35'0 0.0
2018-Jan-11 00:00N 39°35' W 075°35'2 3.0
2018-Jan-10 23:31N 39°35' W 075°33'4 8.5
2018-Jan-10 23:01N 39°39' W 075°33'5 9.0
2018-Jan-10 22:30N 39°43' W 075°30'5 9.3
2018-Jan-10 22:01N 39°47' W 075°28'4 8.6
2018-Jan-10 21:30N 39°50' W 075°23'5 9.3
2018-Jan-10 21:00N 39°51' W 075°17'1 1.5
2018-Jan-10 20:30N 39°51' W 075°16'1 1.2
2018-Jan-10 20:00N 39°51' W 075°16'2 4.2
2018-Jan-10 19:30N 39°52' W 075°13'0 0.0
2018-Jan-10 19:00N 39°52' W 075°13'1 2.8
2018-Jan-10 18:30N 39°53' W 075°12'1 0.2
2018-Jan-10 14:34N 39°54' W 075°12'0 2.7
2018-Jan-10 14:31N 39°54' W 075°12'3 5.4
2018-Jan-10 14:00N 39°54' W 075°08'0 0.1
2018-Jan-10 13:30N 39°54' W 075°08'0 0.1
2018-Jan-10 13:01N 39°54' W 075°08'3 1.8
2018-Jan-10 11:29N 39°54' W 075°12'3 5.4
2018-Jan-10 11:00N 39°53' W 075°09'2 3.0
2018-Jan-10 10:30N 39°54' W 075°08'1 2.7
2018-Jan-10 10:01N 39°53' W 075°08'1 2.6
2018-Jan-10 09:30N 39°54' W 075°08'3 5.7
2018-Jan-10 09:00N 39°57' W 075°08'4 8.5
2018-Jan-10 08:31N 39°60' W 075°04'2 3.8
2018-Jan-10 08:01N 39°59' W 075°06'1 1.2
2018-Jan-10 07:31N 39°59' W 075°05'0 0.0
2018-Jan-10 07:00N 39°59' W 075°05'0 0.3
2018-Jan-10 06:31N 39°59' W 075°05'4 7.7
2018-Jan-10 06:00N 39°56' W 075°08'3 6.2
2018-Jan-10 05:31N 39°53' W 075°10'2 0.3
2018-Jan-09 22:48N 39°54' W 075°12'0 0.5
2018-Jan-09 22:30N 39°54' W 075°12'3 6.4
2018-Jan-09 22:00N 39°54' W 075°08'0 0.0
2018-Jan-09 21:30N 39°54' W 075°08'0 0.2
2018-Jan-09 21:00N 39°54' W 075°08'1 1.5
2018-Jan-09 20:31N 39°53' W 075°08'5 9.3
2018-Jan-09 20:00N 39°52' W 075°14'5 9.0
2018-Jan-09 19:30N 39°51' W 075°20'5 9.9
2018-Jan-09 19:00N 39°48' W 075°25'511.0
2018-Jan-09 18:30N 39°44' W 075°30'510.7
2018-Jan-09 18:00N 39°39' W 075°33'4 8.7
2018-Jan-09 17:30N 39°35' W 075°33'510.0
2018-Jan-09 17:00N 39°30' W 075°33'5 9.2
2018-Jan-09 16:30N 39°26' W 075°32'5 9.8
2018-Jan-09 16:00N 39°22' W 075°27'5 9.3
2018-Jan-09 15:30N 39°18' W 075°23'5 9.9
2018-Jan-09 15:00N 39°15' W 075°19'1010.6
2018-Jan-09 14:05N 39°06' W 075°12'210.9
2018-Jan-09 13:55N 39°05' W 075°11'13 5.3
2018-Jan-09 11:31N 38°53' W 075°06'1 7.8
2018-Jan-09 11:21N 38°54' W 075°06'611.5
2018-Jan-09 10:52N 38°59' W 075°08'512.2
2018-Jan-09 10:26N 39°04' W 075°11'511.6
2018-Jan-09 09:58N 39°09' W 075°15'510.6
2018-Jan-09 09:30N 39°13' W 075°18'5 9.8
2018-Jan-09 09:00N 39°17' W 075°22'4 8.6
2018-Jan-09 08:30N 39°20' W 075°25'3 6.1
2018-Jan-09 08:00N 39°22' W 075°28'3 6.2
2018-Jan-09 07:31N 39°25' W 075°31'3 6.6
2018-Jan-09 07:00N 39°27' W 075°33'4 7.1
2018-Jan-09 06:30N 39°31' W 075°33'4 8.1
2018-Jan-09 06:01N 39°35' W 075°33'4 8.5
2018-Jan-09 05:30N 39°39' W 075°33'5 9.2
2018-Jan-09 05:00N 39°43' W 075°30'5 9.0
2018-Jan-09 04:30N 39°47' W 075°27'4 9.0
2018-Jan-09 04:00N 39°50' W 075°22'4 8.4
2018-Jan-09 03:30N 39°51' W 075°17'4 8.1
2018-Jan-09 03:00N 39°52' W 075°12'4 7.0
2018-Jan-09 02:30N 39°54' W 075°08'0 0.0
2018-Jan-09 02:01N 39°54' W 075°08'0 0.0
2018-Jan-09 01:30N 39°54' W 075°08'0 0.0
2018-Jan-09 01:00N 39°54' W 075°08'0 0.0
2018-Jan-09 00:30N 39°54' W 075°08'0 0.0
2018-Jan-09 00:00N 39°54' W 075°08'0 0.0
2018-Jan-08 23:30N 39°54' W 075°08'0 0.0
2018-Jan-08 23:00N 39°54' W 075°08'0 0.0
2018-Jan-08 22:30N 39°54' W 075°08'0 0.0
2018-Jan-08 22:01N 39°54' W 075°08'0 0.0
2018-Jan-08 21:30N 39°54' W 075°08'2 3.0
2018-Jan-08 21:00N 39°53' W 075°10'1 2.8
2018-Jan-08 20:30N 39°53' W 075°12'1 1.2
2018-Jan-08 20:01N 39°53' W 075°11'3 5.8
2018-Jan-08 19:30N 39°55' W 075°08'3 6.9
2018-Jan-08 19:00N 39°58' W 075°07'2 3.3
2018-Jan-08 18:30N 39°59' W 075°05'0 0.0
2018-Jan-08 18:00N 39°59' W 075°05'0 0.0
2018-Jan-08 17:30N 39°59' W 075°05'0 0.0
2018-Jan-08 17:01N 39°59' W 075°05'0 0.0
2018-Jan-08 16:30N 39°59' W 075°05'0 0.0
2018-Jan-08 16:00N 39°59' W 075°05'0 0.0
2018-Jan-08 15:30N 39°59' W 075°05'0 0.0
2018-Jan-08 15:00N 39°59' W 075°05'0 0.0
2018-Jan-08 14:30N 39°59' W 075°05'0 0.0
2018-Jan-08 14:00N 39°59' W 075°05'2 3.4
2018-Jan-08 13:30N 39°58' W 075°07'3 6.4
2018-Jan-08 13:00N 39°55' W 075°08'3 5.5
2018-Jan-08 12:30N 39°53' W 075°10'1 1.3
2018-Jan-08 12:00N 39°53' W 075°11'0 0.0
2018-Jan-08 11:30N 39°53' W 075°11'0 0.2
2018-Jan-08 11:00N 39°53' W 075°11'1 1.4
2018-Jan-08 10:30N 39°53' W 075°12'  

Dump ship's entire track history